createdAt,value
2023-04-02T00:00:50.112Z,25.00
2023-04-02T00:01:50.130Z,25.00
2023-04-02T00:02:50.198Z,0.00
2023-04-02T00:03:50.334Z,0.00
2023-04-02T00:04:50.125Z,0.00
2023-04-02T00:05:50.176Z,0.00
2023-04-02T00:06:50.114Z,1.44
2023-04-02T00:07:50.129Z,19.24
2023-04-02T00:08:50.119Z,24.35
2023-04-02T00:09:50.128Z,26.77
2023-04-02T00:10:50.115Z,26.39
2023-04-02T00:11:50.155Z,26.70
2023-04-02T00:12:52.838Z,28.19
2023-04-02T00:13:50.132Z,26.06
2023-04-02T00:14:50.127Z,26.57
2023-04-02T00:15:50.114Z,25.00
2023-04-02T00:16:50.169Z,26.40
2023-04-02T00:17:50.145Z,24.42
2023-04-02T00:18:50.127Z,26.00
2023-04-02T00:19:50.117Z,29.51
2023-04-02T00:20:50.115Z,25.69
2023-04-02T00:21:50.116Z,25.06
2023-04-02T00:22:50.125Z,25.49
2023-04-02T00:23:50.126Z,27.04
2023-04-02T00:24:50.127Z,25.00
2023-04-02T00:25:50.125Z,28.36
2023-04-02T00:26:50.134Z,27.13
2023-04-02T00:27:50.122Z,25.90
2023-04-02T00:28:50.150Z,29.31
2023-04-02T00:29:50.121Z,27.90
2023-04-02T00:30:50.119Z,28.94
2023-04-02T00:31:50.183Z,25.00
2023-04-02T00:32:50.137Z,29.39
2023-04-02T00:33:50.137Z,28.11
2023-04-02T00:34:50.119Z,25.00
2023-04-02T00:35:50.136Z,27.38
2023-04-02T00:36:50.128Z,26.87
2023-04-02T00:37:50.137Z,28.12
2023-04-02T00:38:50.124Z,26.59
2023-04-02T00:39:50.127Z,28.35
2023-04-02T00:40:50.128Z,27.30
2023-04-02T00:41:50.128Z,26.63
2023-04-02T00:42:50.114Z,28.05
2023-04-02T00:43:50.078Z,27.93
2023-04-02T00:44:50.074Z,27.46
2023-04-02T00:45:49.758Z,27.44
2023-04-02T00:46:49.933Z,28.50
2023-04-02T00:47:49.756Z,25.10
2023-04-02T00:48:49.687Z,30.44
2023-04-02T00:49:49.691Z,27.78
2023-04-02T00:50:49.684Z,27.15
2023-04-02T00:51:49.691Z,27.01
2023-04-02T00:52:49.692Z,25.93
2023-04-02T00:53:49.658Z,29.06
2023-04-02T00:54:49.675Z,29.27
2023-04-02T00:55:50.330Z,28.75
2023-04-02T00:56:49.658Z,29.13
2023-04-02T00:57:49.639Z,28.12
2023-04-02T00:58:49.635Z,25.36
2023-04-02T00:59:49.626Z,32.06
2023-04-02T01:00:49.635Z,30.29
2023-04-02T01:01:49.675Z,32.06
2023-04-02T01:02:49.777Z,28.07
2023-04-02T01:03:50.390Z,31.10
2023-04-02T01:04:49.709Z,27.90
2023-04-02T01:05:50.345Z,28.09
2023-04-02T01:06:50.128Z,27.91
2023-04-02T01:07:50.121Z,29.35
2023-04-02T01:08:50.118Z,28.57
2023-04-02T01:09:50.127Z,30.29
2023-04-02T01:10:50.117Z,30.80
2023-04-02T01:11:50.112Z,30.74
2023-04-02T01:12:50.124Z,25.00
2023-04-02T01:13:50.118Z,27.20
2023-04-02T01:14:50.118Z,31.79
2023-04-02T01:15:50.197Z,30.80
2023-04-02T01:16:51.026Z,31.33
2023-04-02T01:17:50.140Z,28.63
2023-04-02T01:18:50.118Z,30.45
2023-04-02T01:19:50.114Z,26.83
2023-04-02T01:20:50.120Z,26.34
2023-04-02T01:21:50.116Z,29.13
2023-04-02T01:22:50.142Z,30.59
2023-04-02T01:23:50.164Z,27.65
2023-04-02T01:24:50.198Z,28.89
2023-04-02T01:25:50.215Z,28.46
2023-04-02T01:26:50.234Z,29.58
2023-04-02T01:27:50.263Z,29.56
2023-04-02T01:28:50.293Z,29.50
2023-04-02T01:29:50.316Z,27.88
2023-04-02T01:30:50.339Z,30.14
2023-04-02T01:31:50.454Z,29.35
2023-04-02T01:32:50.484Z,32.71
2023-04-02T01:33:50.422Z,27.41
2023-04-02T01:34:50.453Z,28.56
2023-04-02T01:35:50.486Z,28.84
2023-04-02T01:36:50.511Z,27.05
2023-04-02T01:37:50.533Z,26.61
2023-04-02T01:38:50.549Z,28.28
2023-04-02T01:39:50.580Z,31.75
2023-04-02T01:40:50.966Z,27.59
2023-04-02T01:41:51.017Z,30.42
2023-04-02T01:42:51.021Z,29.69
2023-04-02T01:43:51.027Z,29.20
2023-04-02T01:44:51.022Z,28.91
2023-04-02T01:45:51.593Z,29.78
2023-04-02T01:46:51.147Z,25.28
2023-04-02T01:47:51.027Z,31.03
2023-04-02T01:48:51.028Z,29.24
2023-04-02T01:49:51.008Z,30.34
2023-04-02T01:50:51.000Z,27.21
2023-04-02T01:51:51.845Z,26.74
2023-04-02T01:52:51.005Z,30.80
2023-04-02T01:53:51.849Z,29.83
2023-04-02T01:54:51.006Z,28.32
2023-04-02T01:55:50.996Z,29.45
2023-04-02T01:56:51.060Z,28.95
2023-04-02T01:57:51.023Z,29.10
2023-04-02T01:58:51.021Z,27.72
2023-04-02T01:59:51.043Z,29.71
2023-04-02T02:00:51.098Z,27.77
2023-04-02T02:01:51.128Z,29.82
2023-04-02T02:02:51.139Z,26.58
2023-04-02T02:03:51.157Z,30.04
2023-04-02T02:04:51.194Z,27.12
2023-04-02T02:05:51.854Z,27.24
2023-04-02T02:06:51.226Z,27.35
2023-04-02T02:07:51.250Z,29.72
2023-04-02T02:08:51.273Z,27.10
2023-04-02T02:09:51.296Z,30.09
2023-04-02T02:10:51.324Z,32.01
2023-04-02T02:11:51.361Z,28.33
2023-04-02T02:12:51.380Z,29.69
2023-04-02T02:13:51.406Z,29.37
2023-04-02T02:14:51.870Z,27.49
2023-04-02T02:15:51.468Z,28.82
2023-04-02T02:16:51.491Z,24.58
2023-04-02T02:17:51.562Z,30.61
2023-04-02T02:18:51.558Z,32.91
2023-04-02T02:19:51.597Z,27.62
2023-04-02T02:20:51.633Z,30.52
2023-04-02T02:21:51.622Z,30.43
2023-04-02T02:22:51.667Z,28.82
2023-04-02T02:23:51.688Z,27.56
2023-04-02T02:24:51.710Z,32.78
2023-04-02T02:25:51.739Z,29.97
2023-04-02T02:26:51.771Z,28.58
2023-04-02T02:27:51.803Z,27.84
2023-04-02T02:28:51.819Z,32.75
2023-04-02T02:29:51.850Z,28.67
2023-04-02T02:30:51.883Z,33.90
2023-04-02T02:31:51.966Z,28.19
2023-04-02T02:32:52.006Z,29.21
2023-04-02T02:33:51.975Z,30.06
2023-04-02T02:34:51.996Z,30.49
2023-04-02T02:35:52.076Z,28.81
2023-04-02T02:36:52.069Z,27.64
2023-04-02T02:37:52.082Z,30.83
2023-04-02T02:38:53.853Z,28.63
2023-04-02T02:39:52.115Z,29.59
2023-04-02T02:40:52.095Z,30.44
2023-04-02T02:41:52.098Z,25.93
2023-04-02T02:42:52.076Z,27.56
2023-04-02T02:43:52.065Z,29.90
2023-04-02T02:44:52.067Z,28.03
2023-04-02T02:45:52.068Z,29.44
2023-04-02T02:46:52.864Z,31.07
2023-04-02T02:47:52.088Z,32.57
2023-04-02T02:48:52.033Z,29.37
2023-04-02T02:49:52.025Z,29.21
2023-04-02T02:50:52.010Z,26.77
2023-04-02T02:51:52.007Z,28.32
2023-04-02T02:52:52.021Z,30.68
2023-04-02T02:53:51.987Z,28.77
2023-04-02T02:54:51.987Z,26.05
2023-04-02T02:55:52.872Z,25.00
2023-04-02T02:56:52.016Z,30.52
2023-04-02T02:57:51.966Z,27.47
2023-04-02T02:58:51.948Z,29.25
2023-04-02T02:59:52.868Z,32.01
2023-04-02T03:00:51.940Z,29.21
2023-04-02T03:01:51.926Z,30.34
2023-04-02T03:02:52.021Z,32.38
2023-04-02T03:03:52.158Z,29.68
2023-04-02T03:04:52.877Z,27.21
2023-04-02T03:05:51.902Z,32.69
2023-04-02T03:06:51.925Z,28.17
2023-04-02T03:07:52.868Z,32.18
2023-04-02T03:08:51.996Z,28.46
2023-04-02T03:09:52.000Z,29.95
2023-04-02T03:10:52.028Z,30.74
2023-04-02T03:11:52.068Z,31.53
2023-04-02T03:12:52.087Z,29.02
2023-04-02T03:13:52.113Z,28.17
2023-04-02T03:14:52.134Z,28.24
2023-04-02T03:15:52.178Z,29.34
2023-04-02T03:16:52.191Z,29.66
2023-04-02T03:17:52.257Z,28.13
2023-04-02T03:18:52.257Z,28.31
2023-04-02T03:19:52.289Z,28.33
2023-04-02T03:20:52.319Z,26.52
2023-04-02T03:21:52.345Z,27.01
2023-04-02T03:22:52.390Z,28.48
2023-04-02T03:23:52.384Z,28.52
2023-04-02T03:24:52.434Z,29.46
2023-04-02T03:25:52.449Z,27.63
2023-04-02T03:26:52.467Z,31.05
2023-04-02T03:27:52.491Z,29.01
2023-04-02T03:28:52.572Z,28.36
2023-04-02T03:29:52.544Z,29.72
2023-04-02T03:30:52.640Z,30.19
2023-04-02T03:31:53.396Z,30.34
2023-04-02T03:32:52.679Z,28.95
2023-04-02T03:33:52.643Z,32.29
2023-04-02T03:34:52.673Z,28.88
2023-04-02T03:35:52.702Z,31.81
2023-04-02T03:36:52.716Z,29.65
2023-04-02T03:37:52.747Z,30.82
2023-04-02T03:38:52.777Z,30.60
2023-04-02T03:39:52.805Z,30.91
2023-04-02T03:40:52.871Z,31.63
2023-04-02T03:41:52.866Z,29.25
2023-04-02T03:42:52.887Z,32.34
2023-04-02T03:43:52.917Z,27.65
2023-04-02T03:44:52.951Z,31.70
2023-04-02T03:45:52.972Z,30.52
2023-04-02T03:46:53.007Z,28.37
2023-04-02T03:47:53.066Z,29.50
2023-04-02T03:48:53.052Z,29.79
2023-04-02T03:49:53.079Z,31.51
2023-04-02T03:50:53.093Z,29.71
2023-04-02T03:51:53.128Z,30.02
2023-04-02T03:52:53.149Z,29.72
2023-04-02T03:53:53.175Z,27.63
2023-04-02T03:54:54.537Z,32.75
2023-04-02T03:55:53.233Z,29.26
2023-04-02T03:56:53.337Z,30.82
2023-04-02T03:57:53.280Z,28.35
2023-04-02T03:58:53.306Z,29.17
2023-04-02T03:59:53.380Z,30.40
2023-04-02T04:00:53.371Z,28.40
2023-04-02T04:01:53.450Z,25.00
2023-04-02T04:02:53.449Z,28.92
2023-04-02T04:03:53.489Z,29.90
2023-04-02T04:04:53.469Z,33.78
2023-04-02T04:05:53.507Z,30.54
2023-04-02T04:06:53.523Z,28.23
2023-04-02T04:07:53.550Z,30.64
2023-04-02T04:08:53.581Z,28.10
2023-04-02T04:09:53.605Z,29.77
2023-04-02T04:10:53.661Z,30.52
2023-04-02T04:11:53.670Z,28.44
2023-04-02T04:12:53.705Z,31.89
2023-04-02T04:13:53.725Z,27.02
2023-04-02T04:14:53.734Z,30.74
2023-04-02T04:15:53.770Z,35.01
2023-04-02T04:16:54.018Z,29.20
2023-04-02T04:17:53.924Z,31.95
2023-04-02T04:18:53.844Z,29.13
2023-04-02T04:19:53.865Z,30.16
2023-04-02T04:20:53.894Z,30.86
2023-04-02T04:21:53.958Z,29.10
2023-04-02T04:22:53.949Z,26.15
2023-04-02T04:23:53.973Z,27.07
2023-04-02T04:24:54.003Z,28.99
2023-04-02T04:25:54.034Z,27.83
2023-04-02T04:26:54.061Z,28.60
2023-04-02T04:27:54.081Z,28.25
2023-04-02T04:28:54.174Z,26.90
2023-04-02T04:29:54.156Z,33.27
2023-04-02T04:30:54.178Z,31.44
2023-04-02T04:31:54.227Z,29.38
2023-04-02T04:32:54.247Z,28.05
2023-04-02T04:33:54.252Z,27.13
2023-04-02T04:34:54.279Z,29.33
2023-04-02T04:35:54.369Z,32.37
2023-04-02T04:36:54.750Z,30.89
2023-04-02T04:37:54.361Z,27.94
2023-04-02T04:38:54.392Z,30.41
2023-04-02T04:39:54.418Z,28.54
2023-04-02T04:40:54.502Z,28.18
2023-04-02T04:41:54.486Z,26.13
2023-04-02T04:42:54.504Z,31.66
2023-04-02T04:43:54.537Z,30.40
2023-04-02T04:44:54.579Z,28.58
2023-04-02T04:45:54.640Z,28.42
2023-04-02T04:46:54.614Z,27.88
2023-04-02T04:47:54.659Z,31.10
2023-04-02T04:48:54.666Z,27.39
2023-04-02T04:49:54.684Z,27.32
2023-04-02T04:50:54.717Z,31.14
2023-04-02T04:51:54.750Z,31.73
2023-04-02T04:52:54.778Z,29.21
2023-04-02T04:53:54.799Z,26.22
2023-04-02T04:54:54.829Z,30.06
2023-04-02T04:55:54.856Z,30.51
2023-04-02T04:56:54.894Z,28.35
2023-04-02T04:57:54.913Z,28.97
2023-04-02T04:58:54.929Z,32.08
2023-04-02T04:59:56.143Z,29.14
2023-04-02T05:00:54.972Z,30.75
2023-04-02T05:01:55.023Z,30.92
2023-04-02T05:02:55.047Z,32.52
2023-04-02T05:03:55.045Z,29.27
2023-04-02T05:04:55.066Z,29.48
2023-04-02T05:05:55.088Z,30.26
2023-04-02T05:06:55.111Z,27.92
2023-04-02T05:07:55.995Z,30.03
2023-04-02T05:08:55.128Z,29.62
2023-04-02T05:09:55.120Z,35.19
2023-04-02T05:10:55.112Z,30.99
2023-04-02T05:11:55.099Z,29.63
2023-04-02T05:12:55.094Z,27.43
2023-04-02T05:13:55.092Z,31.74
2023-04-02T05:14:55.079Z,30.46
2023-04-02T05:15:55.109Z,28.93
2023-04-02T05:16:55.063Z,30.67
2023-04-02T05:17:55.088Z,30.51
2023-04-02T05:18:55.065Z,29.88
2023-04-02T05:19:55.055Z,30.29
2023-04-02T05:20:55.033Z,33.02
2023-04-02T05:21:55.028Z,32.02
2023-04-02T05:22:55.024Z,29.28
2023-04-02T05:23:55.015Z,32.96
2023-04-02T05:24:55.004Z,29.72
2023-04-02T05:25:55.005Z,31.84
2023-04-02T05:26:54.990Z,29.73
2023-04-02T05:27:54.986Z,30.39
2023-04-02T05:28:54.975Z,31.25
2023-04-02T05:29:54.974Z,31.23
2023-04-02T05:30:54.994Z,29.36
2023-04-02T05:31:54.983Z,32.59
2023-04-02T05:32:55.002Z,30.59
2023-04-02T05:33:54.938Z,29.45
2023-04-02T05:34:54.945Z,33.12
2023-04-02T05:35:54.988Z,29.99
2023-04-02T05:36:54.970Z,29.89
2023-04-02T05:37:54.917Z,30.46
2023-04-02T05:38:54.913Z,31.28
2023-04-02T05:39:54.899Z,28.02
2023-04-02T05:40:54.895Z,26.49
2023-04-02T05:41:54.882Z,31.72
2023-04-02T05:42:54.880Z,32.35
2023-04-02T05:43:54.876Z,28.95
2023-04-02T05:44:54.901Z,31.94
2023-04-02T05:45:54.866Z,31.33
2023-04-02T05:46:54.937Z,31.37
2023-04-02T05:47:54.873Z,30.07
2023-04-02T05:48:54.833Z,32.01
2023-04-02T05:49:54.824Z,27.37
2023-04-02T05:50:54.818Z,25.93
2023-04-02T05:51:57.068Z,26.94
2023-04-02T05:52:54.799Z,34.08
2023-04-02T05:53:54.797Z,30.24
2023-04-02T05:54:54.787Z,32.56
2023-04-02T05:55:54.778Z,31.35
2023-04-02T05:56:54.780Z,31.64
2023-04-02T05:58:13.649Z,28.09
2023-04-02T05:58:54.922Z,28.54
2023-04-02T05:59:54.749Z,29.80
2023-04-02T06:00:54.742Z,29.72
2023-04-02T06:01:54.745Z,30.77
2023-04-02T06:02:54.801Z,29.33
2023-04-02T06:03:54.793Z,31.50
2023-04-02T06:04:54.700Z,31.55
2023-04-02T06:05:54.691Z,31.08
2023-04-02T06:06:54.690Z,32.27
2023-04-02T06:07:55.485Z,33.28
2023-04-02T06:08:54.668Z,31.67
2023-04-02T06:09:54.663Z,28.22
2023-04-02T06:10:54.691Z,31.83
2023-04-02T06:11:54.643Z,30.57
2023-04-02T06:12:54.642Z,28.76
2023-04-02T06:13:54.943Z,32.26
2023-04-02T06:14:54.622Z,30.35
2023-04-02T06:15:54.614Z,27.63
2023-04-02T06:16:54.628Z,30.39
2023-04-02T06:17:54.668Z,29.02
2023-04-02T06:18:54.596Z,32.47
2023-04-02T06:19:54.635Z,28.91
2023-04-02T06:20:54.584Z,31.99
2023-04-02T06:21:54.571Z,30.47
2023-04-02T06:22:54.942Z,29.09
2023-04-02T06:23:54.561Z,30.69
2023-04-02T06:24:54.552Z,29.26
2023-04-02T06:25:54.899Z,29.11
2023-04-02T06:26:54.532Z,26.04
2023-04-02T06:27:57.437Z,29.91
2023-04-02T06:28:54.550Z,34.10
2023-04-02T06:29:54.548Z,33.33
2023-04-02T06:30:54.574Z,28.56
2023-04-02T06:31:54.536Z,30.64
2023-04-02T06:32:54.549Z,32.60
2023-04-02T06:33:54.523Z,26.98
2023-04-02T06:34:54.510Z,30.60
2023-04-02T06:35:55.554Z,28.44
2023-04-02T06:36:54.493Z,31.76
2023-04-02T06:37:54.955Z,27.23
2023-04-02T06:38:57.446Z,29.90
2023-04-02T06:39:55.456Z,30.04
2023-04-02T06:40:55.216Z,30.74
2023-04-02T06:41:54.530Z,31.47
2023-04-02T06:42:54.563Z,31.61
2023-04-02T06:43:54.596Z,29.68
2023-04-02T06:44:54.630Z,31.06
2023-04-02T06:45:54.721Z,31.16
2023-04-02T06:46:54.697Z,31.85
2023-04-02T06:47:54.767Z,32.55
2023-04-02T06:48:54.959Z,30.02
2023-04-02T06:49:57.453Z,29.64
2023-04-02T06:50:54.787Z,33.16
2023-04-02T06:51:54.808Z,30.77
2023-04-02T06:52:54.782Z,31.06
2023-04-02T06:53:54.774Z,30.61
2023-04-02T06:54:54.790Z,28.36
2023-04-02T06:55:54.752Z,30.95
2023-04-02T06:56:54.788Z,33.17
2023-04-02T06:57:54.737Z,29.89
2023-04-02T06:58:54.741Z,29.79
2023-04-02T06:59:54.745Z,29.81
2023-04-02T07:00:54.720Z,28.10
2023-04-02T07:02:01.457Z,28.09
2023-04-02T07:02:54.734Z,28.70
2023-04-02T07:03:54.709Z,29.40
2023-04-02T07:04:54.703Z,29.86
2023-04-02T07:05:54.685Z,30.52
2023-04-02T07:06:54.681Z,34.08
2023-04-02T07:07:54.689Z,31.72
2023-04-02T07:08:54.659Z,32.03
2023-04-02T07:09:54.646Z,29.20
2023-04-02T07:10:54.639Z,31.43
2023-04-02T07:11:54.638Z,27.19
2023-04-02T07:12:54.612Z,26.73
2023-04-02T07:13:54.614Z,31.93
2023-04-02T07:14:54.604Z,30.06
2023-04-02T07:15:54.620Z,28.21
2023-04-02T07:16:54.588Z,28.54
2023-04-02T07:17:57.510Z,29.73
2023-04-02T07:18:55.462Z,29.95
2023-04-02T07:19:54.561Z,30.47
2023-04-02T07:20:54.564Z,30.05
2023-04-02T07:21:54.552Z,29.86
2023-04-02T07:22:54.541Z,28.39
2023-04-02T07:23:54.558Z,32.14
2023-04-02T07:24:54.557Z,29.21
2023-04-02T07:25:54.529Z,29.25
2023-04-02T07:26:54.512Z,28.90
2023-04-02T07:27:54.504Z,27.27
2023-04-02T07:28:55.501Z,30.24
2023-04-02T07:29:54.487Z,30.70
2023-04-02T07:30:55.461Z,29.41
2023-04-02T07:31:54.505Z,30.26
2023-04-02T07:32:54.487Z,30.94
2023-04-02T07:33:54.462Z,28.53
2023-04-02T07:34:54.447Z,28.99
2023-04-02T07:35:54.450Z,31.71
2023-04-02T07:36:54.966Z,28.03
2023-04-02T07:37:54.472Z,29.79
2023-04-02T07:38:54.512Z,32.16
2023-04-02T07:39:54.547Z,30.95
2023-04-02T07:40:57.467Z,30.79
2023-04-02T07:41:54.543Z,32.57
2023-04-02T07:42:57.460Z,32.97
2023-04-02T07:43:54.541Z,33.23
2023-04-02T07:44:54.515Z,33.18
2023-04-02T07:45:54.521Z,28.19
2023-04-02T07:46:54.556Z,33.09
2023-04-02T07:47:54.530Z,28.71
2023-04-02T07:48:54.489Z,28.31
2023-04-02T07:49:54.481Z,30.82
2023-04-02T07:50:54.472Z,28.97
2023-04-02T07:51:54.469Z,30.37
2023-04-02T07:52:54.462Z,33.39
2023-04-02T07:53:54.457Z,30.27
2023-04-02T07:54:54.440Z,33.28
2023-04-02T07:55:54.473Z,27.86
2023-04-02T07:56:54.534Z,30.87
2023-04-02T07:57:54.448Z,30.19
2023-04-02T07:58:54.419Z,30.69
2023-04-02T07:59:54.420Z,31.01
2023-04-02T08:00:54.407Z,28.95
2023-04-02T08:01:54.460Z,32.15
2023-04-02T08:02:54.456Z,33.95
2023-04-02T08:03:54.841Z,30.26
2023-04-02T08:04:54.376Z,33.00
2023-04-02T08:05:54.358Z,33.28
2023-04-02T08:06:54.359Z,32.47
2023-04-02T08:07:54.351Z,30.11
2023-04-02T08:08:54.332Z,29.64
2023-04-02T08:09:54.328Z,29.99
2023-04-02T08:10:54.324Z,26.74
2023-04-02T08:11:54.343Z,29.77
2023-04-02T08:12:54.305Z,28.61
2023-04-02T08:13:54.297Z,31.08
2023-04-02T08:14:54.296Z,31.19
2023-04-02T08:15:54.285Z,30.94
2023-04-02T08:16:54.408Z,32.08
2023-04-02T08:17:54.318Z,29.23
2023-04-02T08:18:54.277Z,31.19
2023-04-02T08:19:55.371Z,32.89
2023-04-02T08:20:54.260Z,30.09
2023-04-02T08:21:54.978Z,30.69
2023-04-02T08:22:54.254Z,29.67
2023-04-02T08:23:54.220Z,28.45
2023-04-02T08:24:54.221Z,33.47
2023-04-02T08:25:54.202Z,32.52
2023-04-02T08:26:54.200Z,31.62
2023-04-02T08:27:54.234Z,29.32
2023-04-02T08:28:54.228Z,30.44
2023-04-02T08:29:54.983Z,34.28
2023-04-02T08:30:54.341Z,33.49
2023-04-02T08:31:54.306Z,33.71
2023-04-02T08:32:54.420Z,30.75
2023-04-02T08:33:54.351Z,32.51
2023-04-02T08:34:54.380Z,30.69
2023-04-02T08:35:54.435Z,32.35
2023-04-02T08:36:54.432Z,33.23
2023-04-02T08:37:54.471Z,33.02
2023-04-02T08:38:54.492Z,31.67
2023-04-02T08:39:55.488Z,34.76
2023-04-02T08:40:54.543Z,34.47
2023-04-02T08:41:54.576Z,33.50
2023-04-02T08:42:54.591Z,33.52
2023-04-02T08:43:55.019Z,34.48
2023-04-02T08:44:54.643Z,31.35
2023-04-02T08:45:54.704Z,31.63
2023-04-02T08:46:54.696Z,34.48
2023-04-02T08:47:54.734Z,34.39
2023-04-02T08:48:54.753Z,33.70
2023-04-02T08:49:54.769Z,37.42
2023-04-02T08:50:54.792Z,30.72
2023-04-02T08:51:54.817Z,29.04
2023-04-02T08:52:54.849Z,31.67
2023-04-02T08:53:54.882Z,34.37
2023-04-02T08:54:54.909Z,34.35
2023-04-02T08:55:57.488Z,34.15
2023-04-02T08:56:54.937Z,37.47
2023-04-02T08:57:54.916Z,37.33
2023-04-02T08:58:54.905Z,32.31
2023-04-02T08:59:54.919Z,33.78
2023-04-02T09:00:54.893Z,33.45
2023-04-02T09:01:54.905Z,32.61
2023-04-02T09:02:54.895Z,35.15
2023-04-02T09:03:54.864Z,33.23
2023-04-02T09:04:54.891Z,34.89
2023-04-02T09:05:54.848Z,34.33
2023-04-02T09:06:55.507Z,33.21
2023-04-02T09:07:54.837Z,34.65
2023-04-02T09:08:55.491Z,35.70
2023-04-02T09:09:55.494Z,36.61
2023-04-02T09:10:54.825Z,32.78
2023-04-02T09:11:54.808Z,35.43
2023-04-02T09:12:54.797Z,33.60
2023-04-02T09:13:54.788Z,36.11
2023-04-02T09:14:55.499Z,32.10
2023-04-02T09:15:55.055Z,34.99
2023-04-02T09:16:54.765Z,36.07
2023-04-02T09:17:55.400Z,31.93
2023-04-02T09:18:55.004Z,39.98
2023-04-02T09:19:55.496Z,39.11
2023-04-02T09:20:54.738Z,35.02
2023-04-02T09:21:54.729Z,35.89
2023-04-02T09:22:54.728Z,36.93
2023-04-02T09:23:54.716Z,33.05
2023-04-02T09:24:54.707Z,35.09
2023-04-02T09:26:03.710Z,37.95
2023-04-02T09:26:54.706Z,38.28
2023-04-02T09:27:54.680Z,38.94
2023-04-02T09:28:54.679Z,38.28
2023-04-02T09:29:55.502Z,36.81
2023-04-02T09:30:57.528Z,38.67
2023-04-02T09:31:55.559Z,38.13
2023-04-02T09:32:57.554Z,38.98
2023-04-02T09:33:54.707Z,38.25
2023-04-02T09:34:54.626Z,38.87
2023-04-02T09:35:54.656Z,37.72
2023-04-02T09:36:55.507Z,38.13
2023-04-02T09:37:54.614Z,40.82
2023-04-02T09:38:54.607Z,38.72
2023-04-02T09:39:54.600Z,38.13
2023-04-02T09:40:54.583Z,36.48
2023-04-02T09:42:05.044Z,33.97
2023-04-02T09:42:55.507Z,34.38
2023-04-02T09:43:54.562Z,34.40
2023-04-02T09:44:57.509Z,35.27
2023-04-02T09:45:55.511Z,34.19
2023-04-02T09:46:55.546Z,35.15
2023-04-02T09:47:54.558Z,34.82
2023-04-02T09:48:54.522Z,36.96
2023-04-02T09:49:54.512Z,39.04
2023-04-02T09:50:54.506Z,39.99
2023-04-02T09:51:54.520Z,36.78
2023-04-02T09:52:54.490Z,35.96
2023-04-02T09:53:54.490Z,34.04
2023-04-02T09:54:55.011Z,33.88
2023-04-02T09:55:54.472Z,33.58
2023-04-02T09:56:57.267Z,36.21
2023-04-02T09:57:54.457Z,39.49
2023-04-02T09:58:54.450Z,38.68
2023-04-02T09:59:54.449Z,37.67
2023-04-02T10:00:54.458Z,38.72
2023-04-02T10:01:54.440Z,37.29
2023-04-02T10:02:54.525Z,38.53
2023-04-02T10:03:54.465Z,37.50
2023-04-02T10:04:54.410Z,35.49
2023-04-02T10:05:54.397Z,35.69
2023-04-02T10:06:54.389Z,36.45
2023-04-02T10:07:54.388Z,37.70
2023-04-02T10:08:54.519Z,38.62
2023-04-02T10:09:55.012Z,37.82
2023-04-02T10:10:54.377Z,36.56
2023-04-02T10:11:54.359Z,36.78
2023-04-02T10:12:54.344Z,39.60
2023-04-02T10:13:54.521Z,33.86
2023-04-02T10:14:54.330Z,35.21
2023-04-02T10:15:54.339Z,33.95
2023-04-02T10:16:54.390Z,34.57
2023-04-02T10:17:54.393Z,38.11
2023-04-02T10:18:55.045Z,38.66
2023-04-02T10:19:54.303Z,38.10
2023-04-02T10:20:54.290Z,35.92
2023-04-02T10:21:54.279Z,36.94
2023-04-02T10:22:54.278Z,38.95
2023-04-02T10:23:54.269Z,39.01
2023-04-02T10:24:54.277Z,41.39
2023-04-02T10:25:55.044Z,38.13
2023-04-02T10:26:54.245Z,40.43
2023-04-02T10:27:54.241Z,41.30
2023-04-02T10:28:54.226Z,35.58
2023-04-02T10:29:54.222Z,38.67
2023-04-02T10:30:54.234Z,39.76
2023-04-02T10:31:54.205Z,40.10
2023-04-02T10:32:54.247Z,39.69
2023-04-02T10:33:54.536Z,41.28
2023-04-02T10:34:55.049Z,40.69
2023-04-02T10:35:54.225Z,43.00
2023-04-02T10:36:54.168Z,40.53
2023-04-02T10:37:55.026Z,40.45
2023-04-02T10:38:54.219Z,38.15
2023-04-02T10:39:54.246Z,40.74
2023-04-02T10:40:57.244Z,41.54
2023-04-02T10:41:54.262Z,41.67
2023-04-02T10:42:54.254Z,38.89
2023-04-02T10:43:54.242Z,41.87
2023-04-02T10:44:54.534Z,38.86
2023-04-02T10:45:55.058Z,39.84
2023-04-02T10:46:54.228Z,43.19
2023-04-02T10:47:54.271Z,40.22
2023-04-02T10:48:54.253Z,43.36
2023-04-02T10:49:54.540Z,42.71
2023-04-02T10:50:54.215Z,42.21
2023-04-02T10:51:54.186Z,42.05
2023-04-02T10:52:56.129Z,37.42
2023-04-02T10:53:54.172Z,45.41
2023-04-02T10:54:54.166Z,44.75
2023-04-02T10:55:54.156Z,42.49
2023-04-02T10:56:54.191Z,41.92
2023-04-02T10:57:54.152Z,44.07
2023-04-02T10:58:55.598Z,39.97
2023-04-02T10:59:54.131Z,40.42
2023-04-02T11:00:54.145Z,40.45
2023-04-02T11:01:54.156Z,40.48
2023-04-02T11:02:57.302Z,41.73
2023-04-02T11:03:55.845Z,40.32
2023-04-02T11:04:57.334Z,40.51
2023-04-02T11:05:54.101Z,40.59
2023-04-02T11:07:00.838Z,41.13
2023-04-02T11:07:54.080Z,40.48
2023-04-02T11:08:54.063Z,41.63
2023-04-02T11:09:54.064Z,41.78
2023-04-02T11:10:54.058Z,43.21
2023-04-02T11:11:54.080Z,41.57
2023-04-02T11:12:54.043Z,46.35
2023-04-02T11:13:54.537Z,45.23
2023-04-02T11:14:54.031Z,43.85
2023-04-02T11:15:54.104Z,42.49
2023-04-02T11:16:56.540Z,42.17
2023-04-02T11:17:54.048Z,42.32
2023-04-02T11:18:53.998Z,42.28
2023-04-02T11:19:54.029Z,42.40
2023-04-02T11:20:53.988Z,40.78
2023-04-02T11:21:59.310Z,41.05
2023-04-02T11:22:54.010Z,42.69
2023-04-02T11:23:54.046Z,43.30
2023-04-02T11:24:54.558Z,44.01
2023-04-02T11:25:53.954Z,44.60
2023-04-02T11:26:54.059Z,47.72
2023-04-02T11:27:53.943Z,39.53
2023-04-02T11:28:53.934Z,44.01
2023-04-02T11:29:53.928Z,43.83
2023-04-02T11:30:53.919Z,41.22
2023-04-02T11:31:53.940Z,45.03
2023-04-02T11:32:53.940Z,43.87
2023-04-02T11:34:00.550Z,43.32
2023-04-02T11:35:05.667Z,43.86
2023-04-02T11:35:53.900Z,44.10
2023-04-02T11:36:53.892Z,44.52
2023-04-02T11:37:53.873Z,44.77
2023-04-02T11:38:54.895Z,45.24
2023-04-02T11:39:53.885Z,43.72
2023-04-02T11:40:53.851Z,44.35
2023-04-02T11:41:53.848Z,44.20
2023-04-02T11:42:54.548Z,44.06
2023-04-02T11:43:53.838Z,46.10
2023-04-02T11:44:53.822Z,40.72
2023-04-02T11:45:53.851Z,44.03
2023-04-02T11:46:53.838Z,45.64
2023-04-02T11:47:53.839Z,44.29
2023-04-02T11:48:53.785Z,43.46
2023-04-02T11:49:53.783Z,45.73
2023-04-02T11:50:53.768Z,47.43
2023-04-02T11:52:05.477Z,42.54
2023-04-02T11:52:54.555Z,42.95
2023-04-02T11:53:53.748Z,42.83
2023-04-02T11:54:53.768Z,43.83
2023-04-02T11:55:53.734Z,41.31
2023-04-02T11:56:53.738Z,43.90
2023-04-02T11:57:53.716Z,40.68
2023-04-02T11:58:53.711Z,41.13
2023-04-02T11:59:53.705Z,43.36
2023-04-02T12:00:53.691Z,42.72
2023-04-02T12:01:54.564Z,41.72
2023-04-02T12:02:53.722Z,42.58
2023-04-02T12:03:56.556Z,42.46
2023-04-02T12:04:53.711Z,42.69
2023-04-02T12:05:53.656Z,43.37
2023-04-02T12:06:53.641Z,43.18
2023-04-02T12:07:53.646Z,44.08
2023-04-02T12:08:57.981Z,43.71
2023-04-02T12:09:53.833Z,42.87
2023-04-02T12:10:53.839Z,42.92
2023-04-02T12:11:53.836Z,43.53
2023-04-02T12:12:56.556Z,42.34
2023-04-02T12:13:53.830Z,45.26
2023-04-02T12:14:53.822Z,45.70
2023-04-02T12:15:53.808Z,38.21
2023-04-02T12:16:53.823Z,39.58
2023-04-02T12:17:53.790Z,46.17
2023-04-02T12:18:53.936Z,41.17
2023-04-02T12:19:54.076Z,45.10
2023-04-02T12:20:53.764Z,39.90
2023-04-02T12:21:53.767Z,41.86
2023-04-02T12:22:53.757Z,41.04
2023-04-02T12:23:53.755Z,39.96
2023-04-02T12:24:54.581Z,39.97
2023-04-02T12:25:53.726Z,45.30
2023-04-02T12:26:53.741Z,42.22
2023-04-02T12:27:53.709Z,39.42
2023-04-02T12:28:53.702Z,39.59
2023-04-02T12:29:53.700Z,43.73
2023-04-02T12:30:53.700Z,41.73
2023-04-02T12:31:53.688Z,42.24
2023-04-02T12:32:53.714Z,41.38
2023-04-02T12:33:53.666Z,43.43
2023-04-02T12:34:53.668Z,42.59
2023-04-02T12:35:53.672Z,44.27
2023-04-02T12:36:53.650Z,42.36
2023-04-02T12:37:53.652Z,42.33
2023-04-02T12:38:53.641Z,34.66
2023-04-02T12:39:53.630Z,43.02
2023-04-02T12:40:53.677Z,41.47
2023-04-02T12:41:53.613Z,39.69
2023-04-02T12:42:53.634Z,41.09
2023-04-02T12:43:53.605Z,42.77
2023-04-02T12:44:53.605Z,41.20
2023-04-02T12:45:55.602Z,39.22
2023-04-02T12:46:53.585Z,42.23
2023-04-02T12:47:53.630Z,46.37
2023-04-02T12:48:53.567Z,41.82
2023-04-02T12:49:53.557Z,45.75
2023-04-02T12:50:53.554Z,43.62
2023-04-02T12:51:53.573Z,42.64
2023-04-02T12:52:53.548Z,40.71